NCAR-RAP Real-Time Weather Data

Output produced by METARs form (24 April 2018  22:49 UTC)
found at http://weather.rap.ucar.edu/surface/
 
KDCA 242228Z 09011KT 5SM -RA SCT027 BKN050 OVC070 14/11 A3007 RMK AO2 P0001 T01440106
KDCA 242152Z 08008KT 10SM -RA BKN036 OVC085 15/11 A3008 RMK AO2 SLP186 P0002 T01500111
KDCA 242052Z 09008KT 10SM -RA SCT037 BKN044 OVC080 15/11 A3010 RMK AO2 SLP192 P0003 60005 T01500106 56029
KDCA 241952Z 10007KT 10SM -RA SCT041 BKN050 OVC080 16/10 A3012 RMK AO2 SLP201 P0002 T01560100
KDCA 241852Z 14012KT 10SM -RA SCT040 OVC050 16/09 A3016 RMK AO2 RAB1759 SLP212 P0000 T01610089
KDCA 241752Z 12015G27KT 10SM FEW040 BKN055 OVC070 17/08 A3018 RMK AO2 PK WND 11027/1743 SLP220 T01720083 10172 20133 56024
KDCA 241652Z 13017G25KT 10SM SCT050 BKN070 OVC130 17/08 A3020 RMK AO2 SLP227 T01720083
KDCA 241552Z 13015G28KT 10SM BKN060 OVC080 17/08 A3023 RMK AO2 PK WND 12028/1548 SLP238 T01670083
KDCA 241452Z 13011G18KT 10SM OVC060 16/08 A3026 RMK AO2 SLP246 T01610078 58011
KDCA 241352Z 12008KT 10SM FEW040 BKN050 OVC090 15/07 A3027 RMK AO2 SLP249 T01500072
KDCA 241252Z 10008G15KT 10SM BKN047 OVC060 14/07 A3028 RMK AO2 SLP253 T01440067
KDCA 241152Z 07008KT 040V110 10SM BKN044 OVC055 13/06 A3029 RMK AO2 SLP256 T01330056 10133 20128 58006
KDCA 241052Z 08007KT 10SM BKN043 OVC060 13/05 A3030 RMK AO2 SLP260 T01280050
KDCA 240952Z 09007KT 10SM OVC044 13/04 A3030 RMK AO2 SLP259 T01280044
KDCA 240852Z 11008KT 10SM FEW046 BKN055 OVC130 13/04 A3031 RMK AO2 SLP262 T01280039 56013
KDCA 240752Z 11007KT 10SM BKN050 OVC130 13/03 A3031 RMK AO2 SLP264 T01330033
KDCA 240652Z 12009KT 10SM BKN130 OVC200 13/02 A3032 RMK AO2 SLP266 T01330022
KDCA 240552Z 12006KT 10SM BKN130 OVC200 13/01 A3034 RMK AO2 SLP274 T01330011 10161 20128 56014
KDCA 240452Z 11008KT 10SM BKN140 OVC200 13/02 A3035 RMK AO2 SLP275 T01330017 402060100
KDCA 240352Z 13006KT 10SM FEW085 BKN150 OVC200 13/01 A3037 RMK AO2 SLP282 T01330011
KDCA 240252Z 17005KT 10SM FEW085 BKN220 13/01 A3039 RMK AO2 SLP288 T01330006 50002
KDCA 240152Z 14007KT 10SM FEW080 BKN230 14/M01 A3039 RMK AO2 SLP290 T01441011
KDCA 240052Z 14009KT 10SM FEW075 BKN200 15/M01 A3038 RMK AO2 SLP288 T01501011
KDCA 232352Z 14011KT 10SM FEW070 BKN230 16/01 A3038 RMK AO2 SLP287 T01610011 10206 20161 51012
KDCA 232252Z 13013KT 10SM FEW065 BKN250 17/04 A3037 RMK AO2 SLP284 T01720039
KDCA 232152Z 15014G19KT 10SM SCT065 BKN250 18/06 A3036 RMK AO2 SLP282 T01830056
KDCA 232052Z 16013KT 10SM SCT070 BKN250 19/06 A3034 RMK AO2 SLP275 T01940056 56020
KDCA 231952Z 12015KT 10SM BKN060 19/07 A3036 RMK AO2 SLP280 T01940067
KDCA 231852Z 16011KT 10SM BKN060 OVC250 21/08 A3038 RMK AO2 SLP288 T02060083
KDCA 231752Z 15009G17KT 10SM BKN060 OVC250 19/07 A3040 RMK AO2 SLP295 T01890072 10206 20117 55008
KDCA 231652Z 18009KT 10SM SCT050 OVC250 19/06 A3040 RMK AO2 SLP295 T01940061
KDCA 231552Z 20007KT 10SM FEW040 OVC250 19/07 A3043 RMK AO2 SLP302 T01890072
KDCA 231452Z 00000KT 10SM FEW080 OVC250 17/07 A3043 RMK AO2 SLP304 T01720067 58002
KDCA 231352Z 00000KT 10SM SCT070 BKN250 15/05 A3044 RMK AO2 SLP307 T01500050
KDCA 231252Z 17004KT 10SM BKN070 OVC250 13/04 A3044 RMK AO2 SLP309 T01330044
KDCA 231152Z 17003KT 10SM SCT070 BKN250 12/05 A3044 RMK AO2 SLP306 T01170050 10122 20100 53009
KDCA 231052Z 15003KT 10SM FEW070 BKN200 11/04 A3043 RMK AO2 SLP304 T01060044
KDCA 230952Z 00000KT 10SM BKN070 BKN200 11/04 A3041 RMK AO2 SLP299 T01110039
KDCA 230852Z 00000KT 10SM SCT070 SCT130 BKN200 11/03 A3041 RMK AO2 SLP297 T01110033 55001
KDCA 230752Z 16003KT 10SM BKN075 12/03 A3041 RMK AO2 SLP295 T01170028
KDCA 230652Z 00000KT 10SM SCT070 OVC095 12/03 A3040 RMK AO2 SLP295 T01170028
KDCA 230552Z 15004KT 10SM OVC095 12/02 A3041 RMK AO2 SLP297 T01220022 10156 20122 50005
KDCA 230452Z 16004KT 10SM BKN065 BKN085 OVC180 12/03 A3042 RMK AO2 SLP300 T01220028 401940089
KDCA 230352Z 14004KT 10SM BKN065 BKN080 OVC180 12/02 A3041 RMK AO2 SLP299 T01220022
KDCA 230252Z 12005KT 10SM BKN180 13/03 A3040 RMK AO2 SLP293 T01280033 51016
KDCA 230152Z 13003KT 10SM FEW080 SCT250 13/04 A3039 RMK AO2 SLP291 T01330039
KDCA 230052Z 12006KT 10SM FEW075 BKN250 14/04 A3037 RMK AO2 SLP284 T01390039
KDCA 222352Z 15008KT 10SM SCT075 BKN250 16/03 A3035 RMK AO2 SLP277 T01560033 10194 20150 53007
KDCA 222252Z 12008KT 10SM FEW070 BKN250 16/03 A3033 RMK AO2 SLP271 T01610033
KDCA 222152Z 14012KT 10SM SCT070 BKN250 17/03 A3033 RMK AO2 SLP270 T01720033
KDCA 222052Z 13009KT 10SM BKN065 OVC080 18/05 A3033 RMK AO2 SLP270 T01780050 56012
KDCA 221952Z 10012G17KT 10SM FEW045 SCT120 BKN250 19/05 A3033 RMK AO2 SLP271 T01890050
KDCA 221852Z 12011G15KT 10SM FEW040 BKN250 18/07 A3035 RMK AO2 SLP277 T01830067
KDCA 221752Z 10007KT 10SM FEW040 BKN250 19/06 A3036 RMK AO2 SLP281 T01940061 10194 20100 56015
KDCA 221652Z 10006KT 10SM FEW040 BKN250 18/05 A3037 RMK AO2 SLP286 T01830050
KDCA 221552Z 10011G16KT 10SM FEW040 BKN250 17/06 A3039 RMK AO2 SLP290 T01720056
KDCA 221452Z VRB05KT 10SM FEW090 BKN250 16/06 A3041 RMK AO2 SLP296 T01560056 58005
KDCA 221352Z 06006KT 10SM FEW090 BKN250 14/06 A3041 RMK AO2 SLP299 T01390056
KDCA 221252Z 00000KT 10SM FEW090 BKN250 12/05 A3042 RMK AO2 SLP302 T01220050
KDCA 221152Z 07003KT 10SM FEW090 BKN200 10/04 A3042 RMK AO2 SLP301 T01000044 10106 20089 53011
KDCA 221052Z 17004KT 10SM FEW110 OVC200 09/04 A3041 RMK AO2 SLP297 T00940044